Time;durP1;ratioP1;P1;durP2;ratioP2;P2;SDS_P1;SDS_P2;PMS_P1;PMS_P2;Temp;Humidity;BMP_temperature;BMP_pressure;BME280_temperature;BME280_humidity;BME280_pressure;Samples;Min_cycle;Max_cycle;Signal;HPM_P1;HPM_P2
2021/08/26 00:07:23;;;;;;;19.73;18.10;;;22.70;92.60;;;;;;2608124;39;20693;-60
2021/08/26 00:09:52;;;;;;;18.60;17.40;;;22.60;92.60;;;;;;2608246;54;20371;-61
2021/08/26 00:12:22;;;;;;;19.80;18.47;;;22.70;92.60;;;;;;2607907;54;20414;-60
2021/08/26 00:14:52;;;;;;;18.97;17.87;;;22.60;92.60;;;;;;2608564;54;20890;-60
2021/08/26 00:17:21;;;;;;;20.30;18.90;;;22.60;92.50;;;;;;2609363;54;20855;-59
2021/08/26 00:19:53;;;;;;;20.03;18.83;;;22.70;92.60;;;;;;2607455;54;20993;-59
2021/08/26 00:22:22;;;;;;;19.23;18.07;;;22.60;92.50;;;;;;2608655;54;20903;-60
2021/08/26 00:24:51;;;;;;;19.63;18.00;;;22.60;92.50;;;;;;2608280;39;20796;-61
2021/08/26 00:27:23;;;;;;;18.27;17.17;;;22.60;92.50;;;;;;2609144;54;20741;-59
2021/08/26 00:29:55;;;;;;;18.50;17.50;;;22.60;92.50;;;;;;2608584;54;20888;-60
2021/08/26 00:32:24;;;;;;;18.90;17.90;;;22.60;92.50;;;;;;2610693;53;20402;-61
2021/08/26 00:34:56;;;;;;;19.60;18.30;;;22.60;92.50;;;;;;2610629;39;20959;-60
2021/08/26 00:37:25;;;;;;;19.00;17.70;;;22.60;92.90;;;;;;2610862;54;20399;-61
2021/08/26 00:39:54;;;;;;;18.97;17.87;;;22.60;92.60;;;;;;2609824;39;20685;-59
2021/08/26 00:42:24;;;;;;;18.90;17.63;;;22.60;92.60;;;;;;2608772;54;20422;-60
2021/08/26 00:44:55;;;;;;;18.47;17.40;;;22.60;92.60;;;;;;2609028;54;20387;-59
2021/08/26 00:47:25;;;;;;;18.27;17.23;;;22.70;92.60;;;;;;2609608;54;20490;-60
2021/08/26 00:49:57;;;;;;;19.20;18.10;;;22.60;92.60;;;;;;2610283;47;21126;-59
2021/08/26 00:52:27;;;;;;;19.63;18.43;;;22.60;92.60;;;;;;2609140;54;21038;-61
2021/08/26 00:54:57;;;;;;;18.80;17.80;;;22.60;92.60;;;;;;2609382;54;20738;-59
2021/08/26 00:57:27;;;;;;;20.37;19.17;;;22.60;92.60;;;;;;2608051;54;20457;-60
2021/08/26 00:59:57;;;;;;;18.53;17.43;;;22.60;92.60;;;;;;2609527;54;20391;-59
2021/08/26 01:02:34;;;;;;;18.97;17.80;;;22.60;92.60;;;;;;2610441;54;20429;-61
2021/08/26 01:05:14;;;;;;;19.10;17.90;;;22.60;92.50;;;;;;2608659;54;20382;-60
2021/08/26 01:07:47;;;;;;;19.13;18.03;;;22.60;92.60;;;;;;2611762;39;20672;-60
2021/08/26 01:10:18;;;;;;;18.57;17.47;;;22.60;92.50;;;;;;2609937;54;20391;-59
2021/08/26 01:12:50;;;;;;;19.30;18.00;;;22.60;92.60;;;;;;2607830;54;20887;-59
2021/08/26 01:15:19;;;;;;;18.90;17.90;;;22.60;92.60;;;;;;2608916;54;20427;-59
2021/08/26 01:17:49;;;;;;;17.93;16.93;;;22.60;92.50;;;;;;2608502;39;20729;-59
2021/08/26 01:20:20;;;;;;;18.83;17.83;;;22.60;92.50;;;;;;2609240;54;20391;-60
2021/08/26 01:22:50;;;;;;;18.40;17.40;;;22.60;92.60;;;;;;2610680;54;20437;-60
2021/08/26 01:25:22;;;;;;;19.40;18.13;;;22.60;92.60;;;;;;2608928;39;20751;-60
2021/08/26 01:27:59;;;;;;;18.60;17.50;;;22.60;92.50;;;;;;2609857;39;20735;-60
2021/08/26 01:30:33;;;;;;;19.40;18.13;;;22.60;92.50;;;;;;2609372;54;20398;-59
2021/08/26 01:33:05;;;;;;;18.80;17.70;;;22.60;92.50;;;;;;2608479;54;20513;-60
2021/08/26 01:35:34;;;;;;;19.50;18.30;;;22.60;92.50;;;;;;2609220;54;20424;-59
2021/08/26 01:38:04;;;;;;;19.23;18.10;;;22.60;92.50;;;;;;2608476;54;20395;-59
2021/08/26 01:40:43;;;;;;;19.40;18.10;;;22.60;92.50;;;;;;2608756;39;20696;-61
2021/08/26 01:43:16;;;;;;;19.60;18.10;;;22.60;92.60;;;;;;2608532;54;20430;-61
2021/08/26 01:45:46;;;;;;;20.00;18.80;;;22.60;92.60;;;;;;2607161;54;20852;-60
2021/08/26 01:48:17;;;;;;;19.40;18.30;;;22.60;92.60;;;;;;2607289;54;20378;-60
2021/08/26 01:50:46;;;;;;;18.87;17.77;;;22.60;92.60;;;;;;2608788;54;20421;-61
2021/08/26 01:53:15;;;;;;;19.10;18.00;;;22.60;92.60;;;;;;2610535;54;20855;-61
2021/08/26 01:55:45;;;;;;;19.10;18.00;;;22.60;92.60;;;;;;2608567;47;20417;-60
2021/08/26 01:58:17;;;;;;;20.07;18.57;;;22.60;92.60;;;;;;2608795;39;20766;-61
2021/08/26 02:00:46;;;;;;;19.10;17.80;;;22.60;92.60;;;;;;2607831;54;20367;-60
2021/08/26 02:03:16;;;;;;;18.83;17.60;;;22.60;92.60;;;;;;2607101;54;20753;-61
2021/08/26 02:05:45;;;;;;;18.87;17.67;;;22.60;92.60;;;;;;2607049;54;20456;-61
2021/08/26 02:08:14;;;;;;;19.30;18.20;;;22.60;92.60;;;;;;2609070;54;20415;-61
2021/08/26 02:10:43;;;;;;;19.63;18.20;;;22.60;92.60;;;;;;2610208;54;21086;-60
2021/08/26 02:13:12;;;;;;;19.07;17.97;;;22.60;92.60;;;;;;2610308;54;20446;-61
2021/08/26 02:15:44;;;;;;;18.83;17.63;;;22.60;92.60;;;;;;2609899;54;20418;-61
2021/08/26 02:18:13;;;;;;;19.90;18.60;;;22.60;92.60;;;;;;2609426;54;20985;-60
2021/08/26 02:20:42;;;;;;;18.87;17.70;;;22.60;92.60;;;;;;2609709;54;20391;-61
2021/08/26 02:23:11;;;;;;;19.23;18.27;;;22.60;92.60;;;;;;2610739;54;20394;-60
2021/08/26 02:25:40;;;;;;;20.30;19.10;;;22.60;92.60;;;;;;2609319;54;20433;-60
2021/08/26 02:28:09;;;;;;;18.80;17.70;;;22.60;92.50;;;;;;2608586;47;20862;-61
2021/08/26 02:30:39;;;;;;;19.13;18.03;;;22.60;92.50;;;;;;2608170;54;20921;-60
2021/08/26 02:33:10;;;;;;;19.27;18.17;;;22.60;92.50;;;;;;2609508;39;20681;-60
2021/08/26 02:35:39;;;;;;;19.13;17.90;;;22.60;92.50;;;;;;2607751;54;20885;-59
2021/08/26 02:38:08;;;;;;;19.07;17.87;;;22.60;92.40;;;;;;2610311;54;20716;-60
2021/08/26 02:40:38;;;;;;;19.47;17.90;;;22.60;92.40;;;;;;2609692;54;20420;-59
2021/08/26 02:43:07;;;;;;;20.13;18.90;;;22.60;92.40;;;;;;2608521;39;20993;-61
2021/08/26 02:45:36;;;;;;;19.07;18.07;;;22.60;92.50;;;;;;2607680;39;20811;-60
2021/08/26 02:48:06;;;;;;;19.00;17.97;;;22.60;92.50;;;;;;2608212;54;20426;-60
2021/08/26 02:50:38;;;;;;;19.87;18.70;;;22.60;92.40;;;;;;2609203;39;20691;-60
2021/08/26 02:53:07;;;;;;;19.20;18.17;;;22.60;92.50;;;;;;2609380;54;20434;-60
2021/08/26 02:55:36;;;;;;;19.73;18.53;;;22.60;92.50;;;;;;2608776;54;20402;-61
2021/08/26 02:58:05;;;;;;;18.40;17.40;;;22.50;92.30;;;;;;2608447;54;20441;-60
2021/08/26 03:00:35;;;;;;;19.43;18.33;;;22.60;92.30;;;;;;2608563;47;20391;-59
2021/08/26 03:03:04;;;;;;;19.93;18.53;;;22.60;92.40;;;;;;2610020;39;20764;-61
2021/08/26 03:05:33;;;;;;;19.47;18.03;;;22.50;92.30;;;;;;2609315;54;20517;-60
2021/08/26 03:08:05;;;;;;;19.33;18.30;;;22.60;92.40;;;;;;2607974;54;20612;-60
2021/08/26 03:10:34;;;;;;;20.10;19.00;;;22.60;92.50;;;;;;2609808;54;20417;-60
2021/08/26 03:13:05;;;;;;;19.20;17.93;;;22.60;92.50;;;;;;2611085;54;20414;-59
2021/08/26 03:15:34;;;;;;;20.67;19.47;;;22.50;92.40;;;;;;2608955;54;20425;-59
2021/08/26 03:18:03;;;;;;;19.73;18.53;;;22.50;92.40;;;;;;2607481;54;20493;-60
2021/08/26 03:20:33;;;;;;;20.07;18.83;;;22.60;92.40;;;;;;2608986;54;21052;-60
2021/08/26 03:23:04;;;;;;;18.63;17.23;;;22.60;92.40;;;;;;2609166;54;20425;-60
2021/08/26 03:25:34;;;;;;;20.90;19.50;;;22.50;92.30;;;;;;2608711;54;20375;-60
2021/08/26 03:28:03;;;;;;;19.70;18.57;;;22.50;92.30;;;;;;2608492;47;20464;-59
2021/08/26 03:30:32;;;;;;;19.20;18.10;;;22.60;92.50;;;;;;2607522;54;20642;-60
2021/08/26 03:33:01;;;;;;;19.90;18.60;;;22.50;92.40;;;;;;2609753;54;20359;-60
2021/08/26 03:35:31;;;;;;;19.30;18.10;;;22.60;92.50;;;;;;2607651;47;20445;-59
2021/08/26 03:38:00;;;;;;;20.40;18.90;;;22.50;92.40;;;;;;2608873;54;20383;-60
2021/08/26 03:40:32;;;;;;;20.27;18.97;;;22.60;92.40;;;;;;2608825;39;20650;-59
2021/08/26 03:43:01;;;;;;;18.87;17.87;;;22.50;92.30;;;;;;2607146;54;20386;-60
2021/08/26 03:45:31;;;;;;;19.80;18.60;;;22.50;92.30;;;;;;2607908;39;20685;-59
2021/08/26 03:48:00;;;;;;;19.27;18.17;;;22.60;92.40;;;;;;2609726;54;20990;-59
2021/08/26 03:50:29;;;;;;;19.57;18.50;;;22.50;92.40;;;;;;2607501;54;20901;-61
2021/08/26 03:52:58;;;;;;;20.63;19.33;;;22.50;92.40;;;;;;2606097;54;20379;-59
2021/08/26 03:55:27;;;;;;;20.63;19.30;;;22.60;92.80;;;;;;2607603;47;20425;-60
2021/08/26 03:57:59;;;;;;;20.07;18.87;;;22.50;92.30;;;;;;2606683;54;20944;-59
2021/08/26 04:00:28;;;;;;;19.63;18.43;;;22.50;92.20;;;;;;2606327;54;20395;-60
2021/08/26 04:02:57;;;;;;;18.97;17.87;;;22.50;92.30;;;;;;2607734;54;20402;-59
2021/08/26 04:05:26;;;;;;;19.57;18.40;;;22.50;92.30;;;;;;2606537;54;20419;-58
2021/08/26 04:07:55;;;;;;;20.07;18.83;;;22.50;92.40;;;;;;2607780;54;20416;-61
2021/08/26 04:10:25;;;;;;;19.80;18.60;;;22.50;92.40;;;;;;2607896;54;20379;-60
2021/08/26 04:12:54;;;;;;;20.50;19.40;;;22.50;92.40;;;;;;2608305;54;20437;-60
2021/08/26 04:15:26;;;;;;;19.47;18.33;;;22.50;92.40;;;;;;2606272;54;20382;-59
2021/08/26 04:17:55;;;;;;;20.00;18.90;;;22.50;92.30;;;;;;2605723;47;20395;-60
2021/08/26 04:20:24;;;;;;;21.20;19.80;;;22.50;92.30;;;;;;2606006;39;20882;-60
2021/08/26 04:22:53;;;;;;;21.30;19.90;;;22.50;92.30;;;;;;2606126;54;20401;-60
2021/08/26 04:25:23;;;;;;;21.47;19.97;;;22.50;92.40;;;;;;2606657;54;20395;-61
2021/08/26 04:27:52;;;;;;;20.80;19.60;;;22.50;92.40;;;;;;2607591;54;20441;-61
2021/08/26 04:30:22;;;;;;;22.20;20.13;;;22.50;92.50;;;;;;2605952;54;20411;-60
2021/08/26 04:32:53;;;;;;;21.10;19.80;;;22.50;92.50;;;;;;2604880;53;20433;-59
2021/08/26 04:35:23;;;;;;;20.70;19.50;;;22.50;92.40;;;;;;2604657;54;20422;-59
2021/08/26 04:37:52;;;;;;;20.40;19.17;;;22.50;92.30;;;;;;2604323;54;20409;-60
2021/08/26 04:40:22;;;;;;;21.20;19.77;;;22.50;92.40;;;;;;2604598;54;21184;-60
2021/08/26 04:42:51;;;;;;;21.73;20.33;;;22.50;92.40;;;;;;2604799;39;20702;-59
2021/08/26 04:45:20;;;;;;;19.53;18.43;;;22.50;92.40;;;;;;2603952;54;20406;-59
2021/08/26 04:47:49;;;;;;;20.87;19.63;;;22.50;92.40;;;;;;2603517;54;20719;-60
2021/08/26 04:50:21;;;;;;;20.47;19.20;;;22.50;92.40;;;;;;2601142;54;20421;-59
2021/08/26 04:52:51;;;;;;;21.47;19.67;;;22.50;92.40;;;;;;2595868;39;20670;-59
2021/08/26 04:55:20;;;;;;;19.27;18.23;;;22.50;92.50;;;;;;2599154;54;20799;-59
2021/08/26 04:57:49;;;;;;;20.70;19.33;;;22.50;92.50;;;;;;2599444;54;20449;-58
2021/08/26 05:00:18;;;;;;;20.30;18.90;;;22.50;92.50;;;;;;2600682;47;20793;-59
2021/08/26 05:02:48;;;;;;;19.83;18.60;;;22.50;92.60;;;;;;2596047;54;20391;-60
2021/08/26 05:05:17;;;;;;;19.40;18.30;;;22.50;92.50;;;;;;2596972;47;20437;-58
2021/08/26 05:07:49;;;;;;;21.00;19.50;;;22.50;92.50;;;;;;2600652;39;20630;-58
2021/08/26 05:10:18;;;;;;;21.53;20.23;;;22.50;92.50;;;;;;2595873;54;20865;-60
2021/08/26 05:12:47;;;;;;;20.03;18.80;;;22.50;92.50;;;;;;2597914;54;20433;-60
2021/08/26 05:15:16;;;;;;;20.30;19.10;;;22.50;92.50;;;;;;2598531;54;20749;-59
2021/08/26 05:17:45;;;;;;;21.53;20.13;;;22.50;92.50;;;;;;2596890;54;20441;-60
2021/08/26 05:20:15;;;;;;;20.30;19.10;;;22.50;92.50;;;;;;2594849;54;20371;-60
2021/08/26 05:22:44;;;;;;;20.47;19.27;;;22.50;92.50;;;;;;2594561;54;20363;-60
2021/08/26 05:25:16;;;;;;;20.60;19.40;;;22.50;92.50;;;;;;2594801;54;20386;-61
2021/08/26 05:27:45;;;;;;;20.67;19.47;;;22.50;92.20;;;;;;2589431;54;20442;-61
2021/08/26 05:30:14;;;;;;;20.67;19.50;;;22.40;91.40;;;;;;2583408;54;20448;-60
2021/08/26 05:32:43;;;;;;;21.27;19.93;;;22.40;91.20;;;;;;2583543;54;20411;-60
2021/08/26 05:35:13;;;;;;;20.70;19.40;;;22.20;91.20;;;;;;2578920;39;20717;-59
2021/08/26 05:37:42;;;;;;;22.70;20.93;;;22.20;91.30;;;;;;2586115;54;20378;-60
2021/08/26 05:40:12;;;;;;;21.73;19.97;;;22.00;91.30;;;;;;2585734;54;20401;-61
2021/08/26 05:42:44;;;;;;;21.57;20.20;;;22.00;91.50;;;;;;2579198;47;20414;-61
2021/08/26 05:45:14;;;;;;;21.83;20.33;;;21.90;91.50;;;;;;2580159;54;20790;-60
2021/08/26 05:47:43;;;;;;;22.37;20.63;;;21.80;91.50;;;;;;2581517;54;20402;-60
2021/08/26 05:50:12;;;;;;;21.67;20.27;;;21.80;91.70;;;;;;2578533;54;20406;-61
2021/08/26 05:52:41;;;;;;;20.93;19.67;;;21.70;91.80;;;;;;2582367;39;20703;-60
2021/08/26 05:55:11;;;;;;;21.30;20.10;;;21.70;91.80;;;;;;2580488;54;20421;-61
2021/08/26 05:57:40;;;;;;;21.20;19.70;;;21.70;91.70;;;;;;2577068;54;20886;-61
2021/08/26 06:00:13;;;;;;;22.87;21.37;;;21.70;91.80;;;;;;2578587;39;20560;-61
2021/08/26 06:02:42;;;;;;;21.93;20.53;;;21.60;91.80;;;;;;2582883;54;20402;-60
2021/08/26 06:05:12;;;;;;;22.60;21.10;;;21.60;91.90;;;;;;2581138;54;21131;-61
2021/08/26 06:07:41;;;;;;;21.63;20.00;;;21.60;92.00;;;;;;2573696;39;21165;-61
2021/08/26 06:10:12;;;;;;;21.17;19.73;;;21.60;92.00;;;;;;2573141;39;20716;-59
2021/08/26 06:12:42;;;;;;;21.40;19.97;;;21.60;92.10;;;;;;2573029;54;20702;-60
2021/08/26 06:15:14;;;;;;;22.17;20.57;;;21.60;92.50;;;;;;2574373;54;20410;-61
2021/08/26 06:17:44;;;;;;;21.63;20.27;;;21.60;92.20;;;;;;2576444;39;20744;-60
2021/08/26 06:20:15;;;;;;;21.07;19.67;;;21.50;92.10;;;;;;2578912;54;20948;-61
2021/08/26 06:22:45;;;;;;;20.50;19.20;;;21.50;92.10;;;;;;2574391;54;20394;-61
2021/08/26 06:25:15;;;;;;;23.53;21.20;;;21.50;92.10;;;;;;2578317;54;21094;-61
2021/08/26 06:27:45;;;;;;;22.47;20.87;;;21.50;92.20;;;;;;2580971;54;21449;-60
2021/08/26 06:30:17;;;;;;;21.73;20.23;;;21.50;92.20;;;;;;2584851;54;20399;-60
2021/08/26 06:32:47;;;;;;;20.90;19.70;;;21.50;92.30;;;;;;2585152;54;21195;-62
2021/08/26 06:35:16;;;;;;;21.53;20.23;;;21.50;92.30;;;;;;2585093;54;20843;-61
2021/08/26 06:37:45;;;;;;;20.67;19.23;;;21.20;91.90;;;;;;2586724;54;20400;-60
2021/08/26 06:40:16;;;;;;;21.80;20.10;;;20.80;92.40;;;;;;2584272;47;20391;-61
2021/08/26 06:42:45;;;;;;;20.77;19.50;;;20.50;93.20;;;;;;2586053;54;20837;-60
2021/08/26 06:45:17;;;;;;;21.67;20.03;;;20.30;93.50;;;;;;2584581;54;20371;-60
2021/08/26 06:47:46;;;;;;;22.53;20.57;;;20.40;93.60;;;;;;2581307;54;21184;-60
2021/08/26 06:50:15;;;;;;;23.43;21.27;;;20.70;93.60;;;;;;2583413;39;20777;-61
2021/08/26 06:52:44;;;;;;;21.63;20.03;;;20.90;93.50;;;;;;2580565;54;20949;-59
2021/08/26 06:55:14;;;;;;;22.47;20.47;;;21.10;93.40;;;;;;2572801;54;20406;-61
2021/08/26 06:57:43;;;;;;;21.43;19.27;;;21.30;93.30;;;;;;2575418;54;20403;-61
2021/08/26 07:00:21;;;;;;;21.50;19.80;;;21.40;93.20;;;;;;2578932;54;20367;-60
2021/08/26 07:02:54;;;;;;;21.20;19.33;;;21.60;93.20;;;;;;2579155;54;20469;-60
2021/08/26 07:05:24;;;;;;;21.43;19.90;;;21.60;93.20;;;;;;2583518;39;20909;-60
2021/08/26 07:07:53;;;;;;;22.30;20.30;;;21.70;93.10;;;;;;2564856;54;20418;-60
2021/08/26 07:10:22;;;;;;;23.37;20.20;;;21.80;93.20;;;;;;2581219;39;21108;-60
2021/08/26 07:12:51;;;;;;;22.63;20.83;;;21.80;93.10;;;;;;2584389;54;20494;-60
2021/08/26 07:15:25;;;;;;;21.47;19.93;;;21.90;93.10;;;;;;2580953;54;20394;-60
2021/08/26 07:17:54;;;;;;;20.60;19.10;;;22.00;93.10;;;;;;2578639;54;20359;-59
2021/08/26 07:20:23;;;;;;;23.80;20.43;;;22.00;93.10;;;;;;2575926;54;20378;-59
2021/08/26 07:22:52;;;;;;;22.83;20.40;;;22.00;93.10;;;;;;2574692;39;20888;-60
2021/08/26 07:25:22;;;;;;;21.50;20.03;;;22.00;93.10;;;;;;2577249;54;20367;-59
2021/08/26 07:27:51;;;;;;;22.27;20.27;;;22.10;93.10;;;;;;2576499;39;20673;-61
2021/08/26 07:30:23;;;;;;;22.00;20.17;;;22.10;93.10;;;;;;2578220;54;20391;-60
2021/08/26 07:32:52;;;;;;;23.30;21.20;;;22.10;93.20;;;;;;2579254;47;20398;-60
2021/08/26 07:35:21;;;;;;;20.67;19.10;;;22.20;93.20;;;;;;2579506;54;20425;-60
2021/08/26 07:37:51;;;;;;;22.23;20.37;;;22.20;93.30;;;;;;2573994;39;20629;-60
2021/08/26 07:40:20;;;;;;;21.13;19.57;;;22.20;93.30;;;;;;2580305;47;20383;-61
2021/08/26 07:42:49;;;;;;;22.47;20.77;;;22.20;93.30;;;;;;2574008;54;20411;-61
2021/08/26 07:45:18;;;;;;;22.10;20.40;;;22.20;93.30;;;;;;2577693;54;20399;-60
2021/08/26 07:47:50;;;;;;;22.23;20.60;;;22.30;93.40;;;;;;2582560;54;20425;-60
2021/08/26 07:50:20;;;;;;;22.10;20.30;;;22.30;93.40;;;;;;2579618;54;20367;-60
2021/08/26 07:52:49;;;;;;;22.57;20.57;;;22.30;93.50;;;;;;2573014;54;20399;-60
2021/08/26 07:55:19;;;;;;;22.60;20.90;;;22.30;93.50;;;;;;2576420;54;20379;-59
2021/08/26 07:57:48;;;;;;;22.23;20.80;;;22.30;93.50;;;;;;2579421;54;20411;-60
2021/08/26 08:00:17;;;;;;;21.90;20.30;;;22.30;93.50;;;;;;2573193;54;20371;-60
2021/08/26 08:02:47;;;;;;;22.70;21.00;;;22.30;93.50;;;;;;2576982;54;20534;-61
2021/08/26 08:05:18;;;;;;;23.10;21.10;;;22.30;93.60;;;;;;2577015;54;20421;-61
2021/08/26 08:07:48;;;;;;;21.37;19.73;;;22.30;93.60;;;;;;2573615;54;20379;-60
2021/08/26 08:10:17;;;;;;;22.33;20.37;;;22.30;93.60;;;;;;2579415;54;20382;-61
2021/08/26 08:12:46;;;;;;;22.27;20.47;;;22.40;93.70;;;;;;2581569;54;21212;-59
2021/08/26 08:15:15;;;;;;;21.70;20.37;;;22.40;93.70;;;;;;2576277;54;21244;-61
2021/08/26 08:17:44;;;;;;;22.03;20.50;;;22.40;93.70;;;;;;2576422;54;20537;-61
2021/08/26 08:20:14;;;;;;;22.77;21.07;;;22.40;93.80;;;;;;2578733;54;20403;-60
2021/08/26 08:22:48;;;;;;;22.87;21.07;;;22.40;93.80;;;;;;2581902;39;20800;-60
2021/08/26 08:25:17;;;;;;;22.40;21.00;;;22.40;93.80;;;;;;2578060;54;20517;-60
2021/08/26 08:27:46;;;;;;;22.07;20.47;;;22.40;93.80;;;;;;2583076;54;21259;-59
2021/08/26 08:30:15;;;;;;;21.60;20.20;;;22.40;93.80;;;;;;2584745;54;20741;-61
2021/08/26 08:32:45;;;;;;;22.47;20.97;;;22.40;93.90;;;;;;2577146;54;20955;-60
2021/08/26 08:35:14;;;;;;;23.13;21.00;;;22.40;93.90;;;;;;2575525;51;20379;-61
2021/08/26 08:37:46;;;;;;;22.33;20.70;;;22.40;93.90;;;;;;2575798;54;20425;-59
2021/08/26 08:40:15;;;;;;;22.97;21.47;;;22.40;93.90;;;;;;2578203;54;20379;-61
2021/08/26 08:42:46;;;;;;;22.70;20.70;;;22.40;93.90;;;;;;2576337;54;20433;-60
2021/08/26 08:45:15;;;;;;;23.07;21.43;;;22.40;94.00;;;;;;2577019;54;20407;-63
2021/08/26 08:47:48;;;;;;;22.77;21.00;;;22.50;94.00;;;;;;2580394;54;20409;-61
2021/08/26 08:50:17;;;;;;;21.77;20.00;;;22.40;94.00;;;;;;2571029;39;20698;-59
2021/08/26 08:52:49;;;;;;;23.53;21.87;;;22.40;94.00;;;;;;2577689;54;20375;-61
2021/08/26 08:55:19;;;;;;;23.13;21.43;;;22.50;94.10;;;;;;2578675;39;20687;-61
2021/08/26 08:57:49;;;;;;;22.10;20.60;;;22.50;94.20;;;;;;2580829;54;20949;-62
2021/08/26 09:00:23;;;;;;;23.27;21.17;;;22.50;94.10;;;;;;2578649;39;20784;-61
2021/08/26 09:02:52;;;;;;;22.53;20.80;;;22.50;94.20;;;;;;2574643;54;20514;-61
2021/08/26 09:05:22;;;;;;;22.10;20.50;;;22.50;94.20;;;;;;2575267;47;20425;-61
2021/08/26 09:08:10;;;;;;;23.33;21.53;;;22.50;94.20;;;;;;2570016;54;21225;-61
2021/08/26 09:10:39;;;;;;;24.77;22.27;;;22.50;94.20;;;;;;2571631;39;20682;-62
2021/08/26 09:13:09;;;;;;;23.50;21.70;;;22.50;94.20;;;;;;2572396;54;20505;-62
2021/08/26 09:15:38;;;;;;;24.10;22.53;;;22.50;94.30;;;;;;2572068;54;20413;-63
2021/08/26 09:18:18;;;;;;;22.33;20.63;;;22.50;94.30;;;;;;2564708;39;20660;-61
2021/08/26 09:20:53;;;;;;;23.20;21.67;;;22.50;94.30;;;;;;2568901;54;20387;-61
2021/08/26 09:23:27;;;;;;;24.57;22.50;;;22.50;94.30;;;;;;2569562;54;20502;-61
2021/08/26 09:25:58;;;;;;;22.30;21.00;;;22.50;94.30;;;;;;2570508;54;20517;-62
2021/08/26 09:28:36;;;;;;;22.17;20.80;;;22.50;94.30;;;;;;2569026;51;20505;-61
2021/08/26 09:31:13;;;;;;;23.10;21.50;;;22.50;94.40;;;;;;2572224;39;20690;-62
2021/08/26 09:33:50;;;;;;;23.33;21.73;;;22.50;94.40;;;;;;2570252;39;20789;-62
2021/08/26 09:36:21;;;;;;;23.50;21.97;;;22.50;94.40;;;;;;2575968;54;21352;-61
2021/08/26 09:38:58;;;;;;;22.87;21.33;;;22.50;94.40;;;;;;2574192;54;20441;-62
2021/08/26 09:41:45;;;;;;;22.07;20.67;;;22.50;94.40;;;;;;2571332;39;20626;-62
2021/08/26 09:44:16;;;;;;;22.03;20.30;;;22.50;94.40;;;;;;2566927;54;20405;-61
2021/08/26 09:46:47;;;;;;;22.30;20.60;;;22.50;94.40;;;;;;2570079;54;20410;-60
2021/08/26 09:49:18;;;;;;;22.97;21.47;;;22.50;94.40;;;;;;2568086;54;20433;-60
2021/08/26 09:52:03;;;;;;;22.00;20.60;;;22.50;94.40;;;;;;2568849;39;20795;-61
2021/08/26 09:54:37;;;;;;;22.43;21.00;;;22.50;94.40;;;;;;2566183;39;20958;-60
2021/08/26 09:57:07;;;;;;;22.23;20.80;;;22.50;94.50;;;;;;2572695;54;20419;-61
2021/08/26 09:59:47;;;;;;;22.30;20.80;;;22.50;94.40;;;;;;2569441;50;20405;-61
2021/08/26 10:02:17;;;;;;;23.27;21.87;;;22.50;94.50;;;;;;2566749;54;20420;-60
2021/08/26 10:04:47;;;;;;;23.00;21.23;;;22.60;94.60;;;;;;2573641;54;20478;-61
2021/08/26 10:07:16;;;;;;;22.70;21.00;;;22.50;94.50;;;;;;2568712;54;20440;-61
2021/08/26 10:09:49;;;;;;;22.73;21.23;;;22.60;94.60;;;;;;2571069;47;20395;-61
2021/08/26 10:12:19;;;;;;;22.10;20.80;;;22.50;94.50;;;;;;2573957;39;20835;-61
2021/08/26 10:14:50;;;;;;;21.97;20.47;;;22.60;94.60;;;;;;2567053;54;20951;-61
2021/08/26 10:17:20;;;;;;;24.33;22.53;;;22.50;94.50;;;;;;2571605;54;20425;-61
2021/08/26 10:19:51;;;;;;;23.40;21.73;;;22.50;94.50;;;;;;2572256;54;20533;-61
2021/08/26 10:22:21;;;;;;;22.67;21.10;;;22.50;94.60;;;;;;2570420;54;20526;-61
2021/08/26 10:24:52;;;;;;;22.67;20.80;;;22.60;94.60;;;;;;2572101;54;20374;-62
2021/08/26 10:27:27;;;;;;;22.07;20.63;;;22.60;94.90;;;;;;2575856;54;21357;-62
2021/08/26 10:29:56;;;;;;;22.90;21.40;;;22.60;94.60;;;;;;2575579;54;20371;-61
2021/08/26 10:32:27;;;;;;;22.20;20.67;;;22.60;94.60;;;;;;2571624;54;20424;-61
2021/08/26 10:35:08;;;;;;;22.77;21.33;;;22.60;94.70;;;;;;2571020;54;21293;-62
2021/08/26 10:37:51;;;;;;;21.23;19.90;;;22.60;94.70;;;;;;2573009;54;20379;-61
2021/08/26 10:40:38;;;;;;;21.70;20.30;;;22.60;94.70;;;;;;2570948;54;20378;-61
2021/08/26 10:43:08;;;;;;;23.23;21.60;;;22.60;94.70;;;;;;2565118;54;20726;-60
2021/08/26 10:45:52;;;;;;;23.10;21.37;;;22.60;94.70;;;;;;2565133;54;20403;-59
2021/08/26 10:48:26;;;;;;;23.23;20.97;;;22.60;94.80;;;;;;2569916;54;20363;-61
2021/08/26 10:51:17;;;;;;;23.60;22.00;;;22.60;94.80;;;;;;2565848;54;20375;-61
2021/08/26 10:53:49;;;;;;;22.80;21.30;;;22.60;94.80;;;;;;2565638;54;20383;-60
2021/08/26 10:56:29;;;;;;;23.23;21.33;;;22.60;94.80;;;;;;2571057;39;20728;-61
2021/08/26 10:58:59;;;;;;;24.17;22.47;;;22.60;94.80;;;;;;2564850;54;20552;-61
2021/08/26 11:01:37;;;;;;;23.20;21.60;;;22.60;94.90;;;;;;2571100;54;20457;-61
2021/08/26 11:04:08;;;;;;;25.53;23.47;;;22.60;94.90;;;;;;2572732;54;20391;-60
2021/08/26 11:06:47;;;;;;;23.70;22.10;;;22.60;94.90;;;;;;2570070;54;21386;-61
2021/08/26 11:09:33;;;;;;;24.37;22.53;;;22.60;95.00;;;;;;2570532;54;20861;-60
2021/08/26 11:12:25;;;;;;;23.80;22.17;;;22.60;95.00;;;;;;2571533;54;20429;-61
2021/08/26 11:14:55;;;;;;;23.27;21.47;;;22.60;95.00;;;;;;2571992;39;21068;-59
2021/08/26 11:17:36;;;;;;;23.37;21.70;;;22.60;95.00;;;;;;2571247;54;20415;-60
2021/08/26 11:20:33;;;;;;;23.77;22.20;;;22.60;95.00;;;;;;2567672;54;21005;-60
2021/08/26 11:23:11;;;;;;;23.80;22.00;;;22.60;95.10;;;;;;2571530;54;20401;-61
2021/08/26 11:25:40;;;;;;;24.70;22.50;;;22.60;95.10;;;;;;2572898;47;20409;-60
2021/08/26 11:28:37;;;;;;;24.60;22.63;;;22.60;95.10;;;;;;2569795;47;20426;-60
2021/08/26 11:31:22;;;;;;;22.83;20.93;;;22.60;95.20;;;;;;2569633;39;20623;-61
2021/08/26 11:33:52;;;;;;;21.93;20.33;;;22.60;95.20;;;;;;2566754;54;20452;-61
2021/08/26 11:36:22;;;;;;;21.70;20.30;;;22.60;95.20;;;;;;2569962;54;20806;-61
2021/08/26 11:38:56;;;;;;;23.10;21.27;;;22.60;95.20;;;;;;2569170;54;21227;-62
2021/08/26 11:41:26;;;;;;;22.20;20.47;;;22.60;95.20;;;;;;2576675;54;20417;-61
2021/08/26 11:43:58;;;;;;;23.07;21.30;;;22.70;95.30;;;;;;2575970;54;20414;-62
2021/08/26 11:46:27;;;;;;;21.30;19.93;;;22.60;95.20;;;;;;2577569;54;20371;-61
2021/08/26 11:48:58;;;;;;;20.57;19.40;;;22.60;95.20;;;;;;2576786;54;20414;-61
2021/08/26 11:51:33;;;;;;;22.63;21.00;;;22.60;95.20;;;;;;2575475;54;20402;-60
2021/08/26 11:54:17;;;;;;;22.40;20.50;;;22.60;95.30;;;;;;2572580;54;20402;-59
2021/08/26 11:56:49;;;;;;;21.93;20.33;;;22.70;95.30;;;;;;2573375;54;20387;-61
2021/08/26 11:59:32;;;;;;;22.43;20.60;;;22.60;95.30;;;;;;2574992;51;20367;-61
2021/08/26 12:02:23;;;;;;;21.87;20.40;;;22.70;95.40;;;;;;2572359;47;20402;-61
2021/08/26 12:04:54;;;;;;;21.70;20.30;;;22.70;95.40;;;;;;2571619;54;20786;-62
2021/08/26 12:07:25;;;;;;;21.73;20.30;;;22.70;95.40;;;;;;2576882;54;21568;-60
2021/08/26 12:09:55;;;;;;;22.23;20.60;;;22.70;95.40;;;;;;2577696;54;20387;-62
2021/08/26 12:12:24;;;;;;;20.90;19.60;;;22.70;95.40;;;;;;2576219;47;20417;-61
2021/08/26 12:14:56;;;;;;;21.43;20.03;;;22.70;95.40;;;;;;2568421;54;20405;-60
2021/08/26 12:17:25;;;;;;;21.43;19.93;;;22.70;95.40;;;;;;2572474;54;20410;-61
2021/08/26 12:19:57;;;;;;;21.50;19.90;;;22.70;95.40;;;;;;2574733;54;21323;-60
2021/08/26 12:22:28;;;;;;;21.80;20.40;;;22.70;95.50;;;;;;2554628;54;20417;-61
2021/08/26 12:24:59;;;;;;;22.20;20.90;;;22.70;95.40;;;;;;2557357;54;20505;-61
2021/08/26 12:27:31;;;;;;;22.13;20.73;;;22.70;95.50;;;;;;2579423;54;20541;-61
2021/08/26 12:30:02;;;;;;;22.47;20.97;;;22.70;95.50;;;;;;2574752;54;20397;-61
2021/08/26 12:32:35;;;;;;;22.93;21.40;;;22.70;95.50;;;;;;2568907;54;20876;-61
2021/08/26 12:35:25;;;;;;;22.40;20.67;;;22.70;95.50;;;;;;2570756;39;20695;-61
2021/08/26 12:37:57;;;;;;;22.40;20.90;;;22.70;95.50;;;;;;2574278;54;20406;-61
2021/08/26 12:40:29;;;;;;;22.40;20.80;;;22.70;95.50;;;;;;2575639;39;20459;-61
2021/08/26 12:43:07;;;;;;;23.10;21.33;;;22.70;95.50;;;;;;2573775;54;20922;-62
2021/08/26 12:45:39;;;;;;;22.50;20.97;;;22.70;95.60;;;;;;2575268;39;21153;-61
2021/08/26 12:48:27;;;;;;;20.83;19.63;;;22.70;95.50;;;;;;2579175;54;20425;-61
2021/08/26 12:51:17;;;;;;;22.83;21.23;;;22.70;95.60;;;;;;2577884;54;20385;-60
